Time;durP1;ratioP1;P1;durP2;ratioP2;P2;SDS_P1;SDS_P2;PMS_P1;PMS_P2;Temp;Humidity;BMP_temperature;BMP_pressure;BME280_temperature;BME280_humidity;BME280_pressure;Samples;Min_cycle;Max_cycle;Signal;HPM_P1;HPM_P2
2022/12/09 00:00:14;;;;;;;28.80;10.33;;;;;;;0.17;100.00;95244.59;5058184;28;20205;-71
2022/12/09 00:02:40;;;;;;;27.87;10.60;;;;;;;0.11;100.00;95238.16;5057653;28;21144;-72
2022/12/09 00:05:07;;;;;;;30.97;11.60;;;;;;;0.11;100.00;95232.19;5057247;28;20215;-72
2022/12/09 00:07:34;;;;;;;27.77;11.17;;;;;;;0.15;100.00;95233.53;5057406;28;20246;-73
2022/12/09 00:10:03;;;;;;;22.87;9.10;;;;;;;0.03;100.00;95235.47;5058249;28;20205;-70
2022/12/09 00:12:29;;;;;;;25.63;9.97;;;;;;;-0.10;100.00;95233.28;5057565;28;20205;-72
2022/12/09 00:14:56;;;;;;;22.30;10.07;;;;;;;-0.35;100.00;95226.09;5057135;28;20453;-73
2022/12/09 00:17:22;;;;;;;27.90;9.97;;;;;;;-0.20;100.00;95232.50;5057048;28;20220;-71
2022/12/09 00:19:49;;;;;;;27.27;9.67;;;;;;;-0.12;100.00;95230.03;5058027;28;20205;-70
2022/12/09 00:22:15;;;;;;;26.87;9.37;;;;;;;-0.02;100.00;95233.44;5058356;28;20204;-72
2022/12/09 00:24:42;;;;;;;31.87;10.03;;;;;;;-0.20;100.00;95233.31;5056135;28;20580;-72
2022/12/09 00:27:09;;;;;;;20.57;9.43;;;;;;;-0.03;100.00;95229.22;5057321;28;20229;-72
2022/12/09 00:29:36;;;;;;;23.70;9.10;;;;;;;-0.09;100.00;95225.38;5057571;28;20201;-72
2022/12/09 00:32:03;;;;;;;25.80;9.60;;;;;;;-0.19;100.00;95226.34;5058177;28;20258;-72
2022/12/09 00:34:29;;;;;;;22.93;9.83;;;;;;;-0.10;100.00;95222.94;5056752;28;20227;-72
2022/12/09 00:36:56;;;;;;;26.73;10.80;;;;;;;-0.11;100.00;95216.16;5057402;28;20581;-72
2022/12/09 00:39:22;;;;;;;30.47;11.07;;;;;;;-0.08;100.00;95221.84;5057152;28;20216;-72
2022/12/09 00:41:50;;;;;;;28.27;11.00;;;;;;;-0.33;100.00;95224.16;5057182;28;20829;-72
2022/12/09 00:44:18;;;;;;;23.23;9.03;;;;;;;-0.15;100.00;95215.59;5056257;28;20580;-72
2022/12/09 00:46:45;;;;;;;26.27;10.00;;;;;;;-0.34;100.00;95213.03;5057567;28;20224;-72
2022/12/09 00:49:11;;;;;;;19.00;8.80;;;;;;;-0.36;100.00;95207.16;5056590;28;20205;-73
2022/12/09 00:51:38;;;;;;;23.43;8.93;;;;;;;-0.33;100.00;95216.41;5057303;28;20204;-72
2022/12/09 00:54:05;;;;;;;15.70;7.37;;;;;;;-0.41;100.00;95213.69;5056909;28;20229;-72
2022/12/09 00:56:31;;;;;;;16.13;7.57;;;;;;;-0.24;100.00;95202.66;5059646;28;20226;-73
2022/12/09 00:58:59;;;;;;;20.23;7.47;;;;;;;-0.21;100.00;95192.03;5061777;28;20241;-73
2022/12/09 01:01:27;;;;;;;21.77;8.63;;;;;;;-0.19;100.00;95195.28;5057498;28;20197;-73
2022/12/09 01:03:54;;;;;;;14.60;6.50;;;;;;;-0.20;100.00;95198.84;5056429;28;21103;-72
2022/12/09 01:06:23;;;;;;;16.57;6.93;;;;;;;-0.12;100.00;95186.03;5056797;28;20224;-72
2022/12/09 01:08:50;;;;;;;21.60;8.67;;;;;;;-0.23;100.00;95189.59;5057013;28;20223;-73
2022/12/09 01:11:18;;;;;;;17.90;7.37;;;;;;;-0.11;100.00;95190.25;5057546;28;20223;-72
2022/12/09 01:13:45;;;;;;;16.27;7.37;;;;;;;-0.14;100.00;95198.28;5055959;28;20208;-72
2022/12/09 01:16:17;;;;;;;12.67;6.77;;;;;;;-0.04;100.00;95191.31;5056460;28;20232;-72
2022/12/09 01:18:45;;;;;;;18.67;7.30;;;;;;;-0.26;100.00;95197.63;5056929;28;20208;-72
2022/12/09 01:21:12;;;;;;;12.67;6.30;;;;;;;-0.28;100.00;95196.13;5056524;28;20212;-72
2022/12/09 01:23:39;;;;;;;19.07;7.57;;;;;;;-0.22;100.00;95193.00;5056058;28;20204;-73
2022/12/09 01:26:06;;;;;;;15.50;5.80;;;;;;;-0.25;100.00;95186.31;5056913;28;20730;-73
2022/12/09 01:28:35;;;;;;;13.90;6.33;;;;;;;-0.23;100.00;95194.78;5056530;28;20200;-73
2022/12/09 01:31:05;;;;;;;13.77;5.57;;;;;;;-0.31;100.00;95214.53;5056785;28;20853;-73
2022/12/09 01:33:32;;;;;;;16.43;6.07;;;;;;;-0.40;100.00;95210.97;5056884;28;20192;-72
2022/12/09 01:36:00;;;;;;;15.13;6.57;;;;;;;-0.39;100.00;95196.28;5056254;28;20231;-72
2022/12/09 01:38:26;;;;;;;13.67;6.20;;;;;;;-0.31;100.00;95180.88;5056126;28;20216;-72
2022/12/09 01:40:53;;;;;;;14.07;6.33;;;;;;;-0.33;100.00;95170.66;5057289;28;20200;-72
2022/12/09 01:43:20;;;;;;;12.67;5.60;;;;;;;-0.18;100.00;95165.88;5056899;28;20230;-72
2022/12/09 01:45:48;;;;;;;16.37;5.90;;;;;;;-0.25;100.00;95162.22;5055735;28;20236;-72
2022/12/09 01:48:17;;;;;;;12.30;6.47;;;;;;;-0.38;100.00;95156.50;5056317;28;20208;-73
2022/12/09 01:50:47;;;;;;;15.37;6.53;;;;;;;-0.32;100.00;95150.78;5056730;28;20678;-73
2022/12/09 01:53:16;;;;;;;12.67;6.53;;;;;;;-0.42;100.00;95166.31;5056434;28;21151;-72
2022/12/09 01:55:44;;;;;;;12.37;5.73;;;;;;;-0.39;100.00;95171.22;5055564;28;20233;-72
2022/12/09 01:58:11;;;;;;;13.93;6.13;;;;;;;-0.31;100.00;95165.34;5056842;28;20204;-72
2022/12/09 02:00:37;;;;;;;13.07;6.33;;;;;;;-0.27;100.00;95162.31;5057272;28;20204;-72
2022/12/09 02:03:06;;;;;;;14.83;6.80;;;;;;;-0.10;100.00;95160.81;5060040;28;20216;-73
2022/12/09 02:05:34;;;;;;;10.90;5.57;;;;;;;-0.14;100.00;95147.34;5059076;28;20207;-72
2022/12/09 02:08:00;;;;;;;12.37;5.43;;;;;;;-0.07;100.00;95161.34;5060210;28;20215;-72
2022/12/09 02:10:29;;;;;;;14.20;6.40;;;;;;;0.09;100.00;95156.44;5060138;28;20203;-72
2022/12/09 02:13:05;;;;;;;12.23;6.20;;;;;;;-0.03;100.00;95164.50;5060581;28;20204;-72
2022/12/09 02:15:37;;;;;;;16.53;6.97;;;;;;;0.03;100.00;95156.97;5059044;28;20220;-72
2022/12/09 02:18:10;;;;;;;18.47;7.17;;;;;;;0.14;100.00;95143.84;5059919;28;20209;-73
2022/12/09 02:20:41;;;;;;;16.20;6.67;;;;;;;0.17;100.00;95141.78;5060114;28;20204;-72
2022/12/09 02:23:15;;;;;;;27.17;7.73;;;;;;;0.08;100.00;95145.22;5060231;28;20215;-72
2022/12/09 02:25:47;;;;;;;19.27;7.23;;;;;;;0.24;100.00;95150.66;5059375;28;20201;-72
2022/12/09 02:28:36;;;;;;;14.67;6.10;;;;;;;0.37;100.00;95139.94;5059612;28;20204;-73
2022/12/09 02:31:16;;;;;;;14.07;6.47;;;;;;;0.37;100.00;95140.78;5060195;28;20210;-72
2022/12/09 02:34:02;;;;;;;15.80;7.60;;;;;;;0.38;100.00;95149.34;5059186;28;20208;-72
2022/12/09 02:36:33;;;;;;;19.57;7.40;;;;;;;0.41;100.00;95147.31;5059770;28;20224;-72
2022/12/09 02:39:00;;;;;;;15.83;6.90;;;;;;;0.43;100.00;95150.56;5059394;28;20634;-72
2022/12/09 02:41:30;;;;;;;16.03;6.87;;;;;;;0.39;100.00;95136.25;5059669;28;20570;-72
2022/12/09 02:44:02;;;;;;;17.97;6.40;;;;;;;0.29;100.00;95137.25;5059418;28;20217;-73
2022/12/09 02:46:30;;;;;;;18.93;7.13;;;;;;;0.35;100.00;95144.47;5059267;28;20227;-73
2022/12/09 02:48:59;;;;;;;17.23;7.20;;;;;;;0.46;100.00;95134.75;5059064;28;20207;-72
2022/12/09 02:51:28;;;;;;;16.23;7.47;;;;;;;0.50;100.00;95117.94;5059818;28;20205;-73
2022/12/09 02:53:59;;;;;;;17.17;7.57;;;;;;;0.48;100.00;95106.91;5059643;28;20208;-73
2022/12/09 02:56:27;;;;;;;17.23;7.03;;;;;;;0.49;100.00;95113.72;5059346;28;20236;-72
2022/12/09 02:58:53;;;;;;;17.90;6.57;;;;;;;0.48;100.00;95109.47;5058742;28;20208;-72
2022/12/09 03:01:22;;;;;;;17.33;7.20;;;;;;;0.54;100.00;95106.31;5059672;28;20208;-72
2022/12/09 03:03:49;;;;;;;14.40;6.80;;;;;;;0.58;100.00;95099.09;5058471;28;20211;-72
2022/12/09 03:06:19;;;;;;;15.23;7.10;;;;;;;0.63;100.00;95100.28;5059579;28;20291;-72
2022/12/09 03:08:52;;;;;;;17.43;7.17;;;;;;;0.61;100.00;95102.19;5059430;28;20293;-73
2022/12/09 03:11:21;;;;;;;16.30;7.00;;;;;;;0.55;100.00;95091.59;5058591;28;20584;-73
2022/12/09 03:13:55;;;;;;;15.73;6.87;;;;;;;0.49;100.00;95085.22;5058249;28;20672;-72
2022/12/09 03:16:29;;;;;;;16.00;6.50;;;;;;;0.40;100.00;95078.31;5059095;28;20239;-73
2022/12/09 03:19:03;;;;;;;21.07;7.43;;;;;;;0.45;100.00;95070.91;5059052;28;20212;-72
2022/12/09 03:21:34;;;;;;;19.30;7.03;;;;;;;0.38;100.00;95069.88;5059073;28;20193;-73
2022/12/09 03:24:02;;;;;;;21.33;8.53;;;;;;;0.44;100.00;95053.72;5058479;28;20210;-74
2022/12/09 03:26:32;;;;;;;16.10;7.20;;;;;;;0.42;100.00;95037.53;5058244;28;20980;-74
2022/12/09 03:29:01;;;;;;;20.53;8.20;;;;;;;0.27;100.00;95041.56;5058522;28;20204;-75
2022/12/09 03:31:30;;;;;;;16.20;7.17;;;;;;;0.23;100.00;95049.75;5059064;28;20226;-75
2022/12/09 03:34:02;;;;;;;21.23;9.37;;;;;;;0.47;100.00;95053.47;5058220;28;20227;-77
2022/12/09 03:36:36;;;;;;;16.67;7.50;;;;;;;0.51;100.00;95048.78;5058461;28;20221;-73
2022/12/09 03:39:06;;;;;;;23.53;8.37;;;;;;;0.61;100.00;95047.75;5058397;28;20202;-72
2022/12/09 03:41:33;;;;;;;17.90;7.43;;;;;;;0.42;100.00;95053.09;5058402;28;20706;-74
2022/12/09 03:44:08;;;;;;;18.87;7.63;;;;;;;0.65;100.00;95039.56;5057519;28;20659;-76
2022/12/09 03:46:35;;;;;;;21.57;8.93;;;;;;;0.68;100.00;95046.22;5057732;28;20212;-74
2022/12/09 03:49:01;;;;;;;19.50;8.23;;;;;;;0.54;100.00;95051.91;5058685;28;20696;-74
2022/12/09 03:51:34;;;;;;;22.27;7.73;;;;;;;0.69;100.00;95055.66;5057985;28;20204;-75
2022/12/09 03:54:06;;;;;;;21.07;8.17;;;;;;;0.57;100.00;95043.84;5056644;28;20291;-74
2022/12/09 03:56:36;;;;;;;18.83;8.27;;;;;;;0.50;100.00;95053.16;5058965;28;20224;-73
2022/12/09 03:59:07;;;;;;;19.27;8.40;;;;;;;0.58;100.00;95050.66;5058133;28;20565;-74
2022/12/09 04:01:34;;;;;;;17.60;7.43;;;;;;;0.66;100.00;95050.72;5058298;28;20198;-72
2022/12/09 04:04:00;;;;;;;23.93;9.53;;;;;;;0.67;100.00;95045.41;5057486;28;20572;-74
2022/12/09 04:06:27;;;;;;;20.67;7.87;;;;;;;0.85;100.00;95043.66;5057998;28;20212;-74
2022/12/09 04:08:55;;;;;;;23.67;9.30;;;;;;;0.81;100.00;95041.50;5059303;28;20224;-71
2022/12/09 04:11:21;;;;;;;18.30;8.00;;;;;;;0.58;100.00;95041.09;5058303;28;20201;-72
2022/12/09 04:13:48;;;;;;;27.73;9.50;;;;;;;0.71;100.00;95040.75;5057169;28;20200;-73
2022/12/09 04:16:14;;;;;;;22.57;8.73;;;;;;;0.64;100.00;95034.53;5058317;28;20230;-72
2022/12/09 04:18:41;;;;;;;24.63;8.77;;;;;;;0.67;100.00;95029.03;5058860;28;20230;-72
2022/12/09 04:21:09;;;;;;;22.83;9.17;;;;;;;0.70;100.00;95023.56;5057174;28;20317;-72
2022/12/09 04:23:36;;;;;;;25.60;9.87;;;;;;;0.60;100.00;95018.44;5056715;28;20201;-72
2022/12/09 04:26:04;;;;;;;28.37;10.77;;;;;;;0.78;100.00;95021.88;5058092;28;20220;-72
2022/12/09 04:28:31;;;;;;;27.27;9.73;;;;;;;0.70;100.00;95019.19;5057552;28;20570;-72
2022/12/09 04:30:58;;;;;;;27.33;10.60;;;;;;;0.68;100.00;95015.94;5057673;28;20205;-70
2022/12/09 04:33:25;;;;;;;28.90;10.50;;;;;;;0.69;100.00;95017.56;5057908;28;20265;-72
2022/12/09 04:35:52;;;;;;;32.20;10.70;;;;;;;0.65;100.00;95020.63;5057283;28;20233;-73
2022/12/09 04:38:18;;;;;;;35.53;11.83;;;;;;;0.69;100.00;95014.97;5057958;28;20204;-72
2022/12/09 04:40:45;;;;;;;30.50;10.77;;;;;;;0.80;100.00;95011.34;5057934;28;20200;-73
2022/12/09 04:43:13;;;;;;;37.93;11.33;;;;;;;0.90;100.00;95001.72;5056783;28;20201;-69
2022/12/09 04:45:39;;;;;;;30.63;11.03;;;;;;;0.74;100.00;95004.19;5056399;28;20291;-69
2022/12/09 04:48:06;;;;;;;30.47;11.17;;;;;;;0.73;100.00;95005.13;5057838;28;20197;-70
2022/12/09 04:50:33;;;;;;;29.23;11.67;;;;;;;0.77;100.00;94998.69;5056975;28;20196;-72
2022/12/09 04:52:59;;;;;;;32.57;11.50;;;;;;;0.58;100.00;94995.44;5057650;28;20200;-72
2022/12/09 04:55:26;;;;;;;30.80;11.40;;;;;;;0.71;100.00;94992.31;5056877;28;20735;-71
2022/12/09 04:57:52;;;;;;;39.37;12.33;;;;;;;0.77;100.00;94990.91;5057378;28;20558;-71
2022/12/09 05:00:21;;;;;;;43.80;13.03;;;;;;;0.85;100.00;94991.81;5057086;28;20209;-68
2022/12/09 05:02:48;;;;;;;36.53;12.50;;;;;;;0.64;100.00;94988.69;5058124;28;20213;-70
2022/12/09 05:05:14;;;;;;;41.73;12.47;;;;;;;0.65;100.00;94989.50;5056593;28;20203;-71
2022/12/09 05:07:41;;;;;;;35.97;12.63;;;;;;;0.77;100.00;94976.16;5056336;28;20242;-69
2022/12/09 05:10:08;;;;;;;34.00;11.77;;;;;;;0.85;100.00;94981.44;5058030;28;20631;-72
2022/12/09 05:12:35;;;;;;;35.33;12.10;;;;;;;0.73;100.00;94976.63;5056645;28;20207;-71
2022/12/09 05:15:01;;;;;;;41.00;12.17;;;;;;;0.68;100.00;94976.25;5056313;28;20315;-72
2022/12/09 05:17:29;;;;;;;36.77;12.07;;;;;;;0.76;100.00;94971.13;5058086;28;20213;-71
2022/12/09 05:19:56;;;;;;;36.13;11.77;;;;;;;0.80;100.00;94956.91;5057029;28;20207;-71
2022/12/09 05:22:22;;;;;;;40.17;12.83;;;;;;;0.62;100.00;94950.91;5056332;28;20201;-71
2022/12/09 05:24:49;;;;;;;37.00;12.57;;;;;;;0.57;100.00;94957.50;5056592;28;20579;-71
2022/12/09 05:27:15;;;;;;;44.27;13.30;;;;;;;0.63;100.00;94952.56;5057174;28;20381;-72
2022/12/09 05:29:42;;;;;;;43.13;13.63;;;;;;;0.80;100.00;94951.72;5056609;28;20211;-72
2022/12/09 05:32:09;;;;;;;36.33;12.97;;;;;;;0.83;100.00;94951.44;5057297;28;20201;-72
2022/12/09 05:34:37;;;;;;;35.83;12.27;;;;;;;0.91;100.00;94946.31;5056047;28;20924;-71
2022/12/09 05:37:03;;;;;;;33.10;10.90;;;;;;;0.84;100.00;94947.84;5061443;28;20247;-71
2022/12/09 05:39:30;;;;;;;38.07;11.07;;;;;;;0.84;100.00;94943.50;5057718;28;20224;-72
2022/12/09 05:41:56;;;;;;;46.73;13.67;;;;;;;0.77;100.00;94931.28;5057524;28;20761;-72
2022/12/09 05:44:23;;;;;;;40.87;13.07;;;;;;;0.85;100.00;94926.16;5055648;28;20208;-71
2022/12/09 05:46:49;;;;;;;30.33;11.00;;;;;;;0.82;100.00;94927.28;5056469;28;20227;-71
2022/12/09 05:49:16;;;;;;;32.30;12.07;;;;;;;0.94;100.00;94923.50;5056622;28;20217;-71
2022/12/09 05:51:44;;;;;;;35.43;11.20;;;;;;;1.05;100.00;94925.81;5056534;28;20204;-71
2022/12/09 05:54:10;;;;;;;28.83;11.80;;;;;;;0.97;100.00;94917.16;5055694;28;20205;-71
2022/12/09 05:56:37;;;;;;;33.07;11.80;;;;;;;0.99;100.00;94918.63;5056576;28;20244;-71
2022/12/09 05:59:03;;;;;;;35.57;12.43;;;;;;;1.08;100.00;94916.94;5056633;28;20939;-72
2022/12/09 06:01:30;;;;;;;44.80;12.77;;;;;;;0.96;100.00;94918.16;5055754;28;20287;-72
2022/12/09 06:03:57;;;;;;;31.80;11.33;;;;;;;0.95;100.00;94916.53;5055602;28;20299;-73
2022/12/09 06:06:26;;;;;;;38.70;12.03;;;;;;;0.95;100.00;94913.91;5056321;28;20216;-72
2022/12/09 06:08:57;;;;;;;33.70;11.33;;;;;;;1.00;100.00;94915.09;5055934;28;20644;-72
2022/12/09 06:11:24;;;;;;;33.27;11.37;;;;;;;0.96;100.00;94915.56;5056303;28;20201;-73
2022/12/09 06:13:51;;;;;;;34.80;11.70;;;;;;;0.95;100.00;94917.31;5055651;28;20211;-73
2022/12/09 06:16:20;;;;;;;38.80;12.90;;;;;;;0.99;100.00;94921.22;5055866;28;20229;-73
2022/12/09 06:18:47;;;;;;;42.30;12.20;;;;;;;0.96;100.00;94915.56;5056155;28;20208;-73
2022/12/09 06:21:15;;;;;;;32.40;11.53;;;;;;;1.08;100.00;94903.97;5056434;28;20226;-73
2022/12/09 06:23:43;;;;;;;41.23;13.07;;;;;;;0.97;100.00;94907.63;5057558;28;20200;-70
2022/12/09 06:26:16;;;;;;;34.77;10.73;;;;;;;1.11;100.00;94914.03;5058213;28;20233;-72
2022/12/09 06:28:42;;;;;;;34.20;13.10;;;;;;;0.97;100.00;94906.78;5058823;28;20197;-72
2022/12/09 06:31:09;;;;;;;28.90;10.93;;;;;;;0.94;100.00;94909.69;5058112;28;20212;-73
2022/12/09 06:33:35;;;;;;;39.03;12.70;;;;;;;0.98;100.00;94909.25;5057494;28;20236;-72
2022/12/09 06:36:03;;;;;;;43.87;13.33;;;;;;;1.11;100.00;94909.66;5058108;28;20245;-71
2022/12/09 06:38:29;;;;;;;38.10;13.10;;;;;;;1.05;100.00;94907.66;5058541;28;20664;-72
2022/12/09 06:40:56;;;;;;;45.07;13.23;;;;;;;0.98;100.00;94913.63;5057918;28;20212;-71
2022/12/09 06:43:24;;;;;;;39.17;13.20;;;;;;;1.19;100.00;94906.31;5058225;28;20205;-70
2022/12/09 06:45:50;;;;;;;43.47;12.27;;;;;;;1.18;100.00;94904.69;5058282;28;20221;-72
2022/12/09 06:48:17;;;;;;;42.77;14.20;;;;;;;1.18;100.00;94904.69;5061034;28;20209;-73
2022/12/09 06:50:44;;;;;;;37.20;12.50;;;;;;;1.09;100.00;94903.00;5062086;28;20585;-72
2022/12/09 06:53:10;;;;;;;40.83;13.10;;;;;;;1.25;100.00;94901.31;5059969;28;20201;-71
2022/12/09 06:55:37;;;;;;;41.07;14.90;;;;;;;1.30;100.00;94912.06;5060470;28;20213;-70
2022/12/09 06:58:03;;;;;;;44.23;13.70;;;;;;;1.35;100.00;94908.03;5061796;28;20441;-70
2022/12/09 07:00:32;;;;;;;40.43;13.03;;;;;;;1.30;100.00;94912.84;5062015;28;20202;-71
2022/12/09 07:02:58;;;;;;;38.43;12.57;;;;;;;1.34;100.00;94906.38;5061954;28;20212;-69
2022/12/09 07:05:25;;;;;;;36.13;12.00;;;;;;;1.42;100.00;94914.22;5061163;28;20261;-69
2022/12/09 07:07:52;;;;;;;45.90;13.33;;;;;;;1.41;100.00;94916.97;5061654;28;20237;-72
2022/12/09 07:10:20;;;;;;;38.20;12.50;;;;;;;1.46;100.00;94912.13;5060787;28;20240;-69
2022/12/09 07:12:47;;;;;;;42.60;13.23;;;;;;;1.34;100.00;94911.59;5061284;28;20209;-69
2022/12/09 07:15:13;;;;;;;31.30;11.50;;;;;;;1.28;100.00;94913.97;5061435;28;20205;-69
2022/12/09 07:17:41;;;;;;;37.73;12.30;;;;;;;1.43;100.00;94904.66;5061339;28;20264;-70
2022/12/09 07:20:09;;;;;;;36.03;12.93;;;;;;;1.43;100.00;94900.28;5060785;28;20917;-71
2022/12/09 07:22:35;;;;;;;38.57;13.63;;;;;;;1.44;100.00;94907.09;5060580;28;20206;-69
2022/12/09 07:25:02;;;;;;;35.97;11.53;;;;;;;1.46;100.00;94901.75;5060273;28;20201;-71
2022/12/09 07:27:28;;;;;;;44.63;14.03;;;;;;;1.48;100.00;94905.81;5060714;28;20216;-71
2022/12/09 07:29:56;;;;;;;35.97;11.83;;;;;;;1.43;100.00;94904.66;5060567;28;20247;-70
2022/12/09 07:32:23;;;;;;;32.13;11.50;;;;;;;1.30;100.00;94899.88;5060722;28;20210;-71
2022/12/09 07:34:51;;;;;;;39.13;11.43;;;;;;;1.47;100.00;94901.59;5060016;28;20210;-70
2022/12/09 07:37:17;;;;;;;36.20;11.97;;;;;;;1.40;100.00;94898.00;5060504;28;20225;-71
2022/12/09 07:39:44;;;;;;;39.67;11.53;;;;;;;1.47;100.00;94896.41;5060325;28;20207;-70
2022/12/09 07:42:10;;;;;;;35.23;10.63;;;;;;;1.59;100.00;94895.19;5059642;28;20611;-71
2022/12/09 07:44:37;;;;;;;30.87;10.57;;;;;;;1.39;100.00;94898.97;5059021;28;20201;-69
2022/12/09 07:47:04;;;;;;;34.57;11.20;;;;;;;1.47;100.00;94899.00;5060570;28;20216;-71
2022/12/09 07:49:30;;;;;;;31.30;9.67;;;;;;;1.45;100.00;94897.53;5060616;28;20212;-70
2022/12/09 07:51:58;;;;;;;25.70;9.80;;;;;;;1.48;100.00;94895.44;5060723;28;20210;-71
2022/12/09 07:54:25;;;;;;;23.07;9.43;;;;;;;1.42;100.00;94887.47;5059103;28;20674;-71
2022/12/09 07:56:51;;;;;;;25.67;10.30;;;;;;;1.47;100.00;94893.81;5058780;28;20253;-71
2022/12/09 07:59:18;;;;;;;29.87;10.27;;;;;;;1.43;100.00;94884.72;5060362;28;20297;-69
2022/12/09 08:01:44;;;;;;;26.10;9.27;;;;;;;1.24;100.00;94884.91;5060379;28;20349;-71
2022/12/09 08:04:11;;;;;;;30.27;10.43;;;;;;;1.45;100.00;94877.59;5059072;28;20202;-70
2022/12/09 08:06:38;;;;;;;28.20;9.77;;;;;;;1.28;100.00;94875.88;5059449;28;20222;-71
2022/12/09 08:09:08;;;;;;;31.87;11.10;;;;;;;1.50;100.00;94871.91;5059952;28;20715;-73
2022/12/09 08:11:34;;;;;;;29.10;10.37;;;;;;;1.40;100.00;94874.66;5059221;28;20212;-74
2022/12/09 08:14:04;;;;;;;32.60;10.90;;;;;;;1.54;100.00;94868.88;5062204;28;20205;-72
2022/12/09 08:16:30;;;;;;;34.17;10.27;;;;;;;1.49;100.00;94873.72;5061277;28;20580;-72
2022/12/09 08:18:57;;;;;;;48.53;10.60;;;;;;;1.47;100.00;94877.44;5061950;28;20211;-72
2022/12/09 08:21:26;;;;;;;30.40;11.07;;;;;;;1.55;100.00;94870.47;5061629;28;20210;-71
2022/12/09 08:23:54;;;;;;;27.57;8.87;;;;;;;1.64;100.00;94871.34;5061772;28;20680;-73
2022/12/09 08:26:24;;;;;;;27.43;10.33;;;;;;;1.65;100.00;94878.16;5058885;28;20221;-73
2022/12/09 08:28:51;;;;;;;29.30;10.37;;;;;;;1.53;100.00;94874.22;5057323;28;20223;-73
2022/12/09 08:31:20;;;;;;;29.27;11.13;;;;;;;1.55;100.00;94873.06;5058022;28;20960;-73
2022/12/09 08:33:46;;;;;;;37.63;11.23;;;;;;;1.54;100.00;94876.66;5056546;28;20210;-73
2022/12/09 08:36:17;;;;;;;31.37;10.47;;;;;;;1.82;100.00;94880.66;5056543;28;20232;-72
2022/12/09 08:38:43;;;;;;;28.90;10.73;;;;;;;1.76;100.00;94873.50;5057380;28;20202;-72
2022/12/09 08:41:12;;;;;;;25.37;10.60;;;;;;;1.87;100.00;94868.81;5057657;28;20201;-72
2022/12/09 08:43:41;;;;;;;26.23;11.03;;;;;;;1.80;100.00;94867.00;5056946;28;20206;-72
2022/12/09 08:46:07;;;;;;;33.50;10.93;;;;;;;1.75;100.00;94861.47;5057328;28;20229;-72
2022/12/09 08:48:36;;;;;;;33.70;10.93;;;;;;;1.90;100.00;94857.31;5057130;28;20211;-72
2022/12/09 08:51:03;;;;;;;27.03;9.80;;;;;;;1.88;100.00;94849.69;5057246;28;20207;-72
2022/12/09 08:53:30;;;;;;;31.93;10.60;;;;;;;1.96;100.00;94846.28;5056516;28;20204;-72
2022/12/09 08:55:56;;;;;;;24.50;8.83;;;;;;;1.71;100.00;94854.97;5057234;28;20224;-72
2022/12/09 08:58:23;;;;;;;28.77;10.13;;;;;;;1.94;100.00;94851.63;5056701;28;20604;-72
2022/12/09 09:00:51;;;;;;;30.37;10.33;;;;;;;2.07;100.00;94851.19;5056944;28;20294;-71
2022/12/09 09:03:17;;;;;;;31.93;9.77;;;;;;;2.21;100.00;94847.94;5057413;28;20300;-71
2022/12/09 09:05:44;;;;;;;30.90;11.07;;;;;;;2.26;100.00;94843.09;5056345;28;20200;-72
2022/12/09 09:08:10;;;;;;;31.60;10.93;;;;;;;2.28;100.00;94839.34;5057054;28;20212;-71
2022/12/09 09:10:37;;;;;;;26.97;10.30;;;;;;;2.36;100.00;94844.56;5056474;28;20207;-72
2022/12/09 09:13:03;;;;;;;29.70;11.07;;;;;;;2.31;100.00;94846.03;5057063;28;20210;-71
2022/12/09 09:15:30;;;;;;;25.87;9.50;;;;;;;2.32;100.00;94850.22;5056044;28;20585;-72
2022/12/09 09:17:58;;;;;;;35.17;11.53;;;;;;;2.40;100.00;94849.25;5057282;28;20233;-71
2022/12/09 09:20:24;;;;;;;25.63;9.90;;;;;;;2.38;100.00;94854.78;5056755;28;20206;-71
2022/12/09 09:22:51;;;;;;;31.87;10.93;;;;;;;1.96;100.00;94854.06;5057391;28;20210;-71
2022/12/09 09:25:17;;;;;;;23.77;8.87;;;;;;;2.02;100.00;94850.84;5055739;28;20699;-71
2022/12/09 09:27:44;;;;;;;31.40;11.23;;;;;;;1.83;100.00;94857.13;5056536;28;21117;-71
2022/12/09 09:30:11;;;;;;;28.80;11.37;;;;;;;2.04;100.00;94849.72;5056908;28;20202;-71
2022/12/09 09:32:37;;;;;;;27.53;10.03;;;;;;;2.19;100.00;94849.88;5056158;28;20348;-72
2022/12/09 09:35:06;;;;;;;25.57;8.80;;;;;;;2.21;100.00;94840.16;5055938;28;20564;-71
2022/12/09 09:37:32;;;;;;;30.57;10.57;;;;;;;2.13;100.00;94848.75;5056828;28;20232;-71
2022/12/09 09:39:59;;;;;;;35.50;11.00;;;;;;;2.32;100.00;94850.22;5056672;28;20653;-72
2022/12/09 09:42:35;;;;;;;25.47;9.77;;;;;;;2.43;100.00;94854.16;5056436;28;20200;-71
2022/12/09 09:45:05;;;;;;;32.27;10.77;;;;;;;2.37;100.00;94846.19;5057154;28;20223;-71
2022/12/09 09:47:38;;;;;;;33.53;11.53;;;;;;;2.52;100.00;94853.19;5056513;28;20226;-72
2022/12/09 09:50:19;;;;;;;29.20;10.77;;;;;;;2.50;100.00;94846.50;5056452;28;20225;-71
2022/12/09 09:52:45;;;;;;;34.50;10.57;;;;;;;2.45;100.00;94844.38;5056479;28;20207;-71
2022/12/09 09:55:15;;;;;;;25.97;10.03;;;;;;;2.55;100.00;94850.25;5055781;28;20207;-71
2022/12/09 09:57:47;;;;;;;29.27;10.97;;;;;;;2.59;100.00;94841.13;5056147;28;20253;-71
2022/12/09 10:00:22;;;;;;;31.97;11.57;;;;;;;2.50;100.00;94838.72;5056354;28;20211;-71
2022/12/09 10:03:00;;;;;;;24.70;9.47;;;;;;;2.62;100.00;94830.44;5056795;28;20249;-71
2022/12/09 10:05:31;;;;;;;30.27;11.37;;;;;;;2.50;100.00;94826.50;5055639;28;20307;-71
2022/12/09 10:08:07;;;;;;;26.87;10.47;;;;;;;2.33;100.00;94816.31;5057228;28;20217;-71
2022/12/09 10:10:42;;;;;;;26.27;10.10;;;;;;;2.44;100.00;94822.00;5055789;28;20203;-71
2022/12/09 10:13:25;;;;;;;29.20;10.00;;;;;;;2.43;100.00;94815.16;5060551;28;20210;-76
2022/12/09 10:15:58;;;;;;;27.83;10.07;;;;;;;2.38;100.00;94815.81;5054871;28;20225;-73
2022/12/09 10:18:29;;;;;;;28.17;11.40;;;;;;;2.59;100.00;94815.13;5056455;28;20232;-73
2022/12/09 10:20:57;;;;;;;36.40;12.17;;;;;;;2.50;100.00;94816.13;5055662;28;20214;-73
2022/12/09 10:23:25;;;;;;;26.53;10.63;;;;;;;2.52;100.00;94803.78;5059483;28;20205;-73
2022/12/09 10:25:55;;;;;;;29.13;10.37;;;;;;;2.58;100.00;94804.91;5059193;28;20258;-75
2022/12/09 10:28:24;;;;;;;30.27;11.20;;;;;;;2.61;100.00;94802.81;5059841;28;20208;-73
2022/12/09 10:30:52;;;;;;;28.00;10.73;;;;;;;2.31;100.00;94794.84;5059609;28;20208;-73
2022/12/09 10:33:30;;;;;;;31.10;12.90;;;;;;;2.38;100.00;94795.00;5059426;28;20504;-75
2022/12/09 10:35:58;;;;;;;27.47;10.93;;;;;;;2.38;100.00;94782.84;5059585;28;20223;-73
2022/12/09 10:38:26;;;;;;;31.93;13.40;;;;;;;2.30;100.00;94775.03;5060043;28;20226;-73
2022/12/09 10:41:01;;;;;;;28.60;11.50;;;;;;;2.44;100.00;94775.22;5059770;28;20209;-74
2022/12/09 10:43:36;;;;;;;32.30;11.87;;;;;;;2.32;100.00;94774.84;5059213;28;20253;-74
2022/12/09 10:46:06;;;;;;;26.80;10.53;;;;;;;2.40;100.00;94773.09;5060326;28;21119;-72
2022/12/09 10:48:36;;;;;;;35.33;11.37;;;;;;;2.11;100.00;94772.75;5063709;28;20242;-72
2022/12/09 10:51:06;;;;;;;25.07;9.20;;;;;;;2.05;100.00;94775.19;5062980;28;20202;-72
2022/12/09 10:53:34;;;;;;;30.50;10.83;;;;;;;2.14;100.00;94771.59;5063265;28;20199;-72
2022/12/09 10:56:02;;;;;;;29.80;11.43;;;;;;;2.17;100.00;94784.28;5063448;28;20232;-72
2022/12/09 10:58:31;;;;;;;35.63;12.93;;;;;;;2.15;100.00;94788.81;5063491;28;20583;-72
2022/12/09 11:01:01;;;;;;;25.27;10.80;;;;;;;2.19;100.00;94784.94;5063029;28;20251;-70
2022/12/09 11:03:31;;;;;;;38.37;12.77;;;;;;;2.04;100.00;94784.78;5062529;28;20211;-70
2022/12/09 11:06:00;;;;;;;29.03;11.63;;;;;;;2.20;100.00;94766.59;5063462;28;20232;-70
2022/12/09 11:08:29;;;;;;;30.87;11.37;;;;;;;2.05;100.00;94767.38;5061649;28;20206;-73
2022/12/09 11:10:55;;;;;;;32.47;12.10;;;;;;;2.24;100.00;94757.50;5059645;28;20211;-73
2022/12/09 11:13:35;;;;;;;37.27;13.00;;;;;;;2.40;100.00;94756.69;5058672;28;20246;-73
2022/12/09 11:16:03;;;;;;;33.77;12.50;;;;;;;2.37;100.00;94757.00;5059189;28;20704;-73
2022/12/09 11:18:35;;;;;;;33.30;13.13;;;;;;;2.30;100.00;94751.63;5059011;28;20227;-73
2022/12/09 11:21:04;;;;;;;31.57;12.20;;;;;;;2.32;100.00;94748.88;5058312;28;20567;-73
2022/12/09 11:23:33;;;;;;;32.80;12.87;;;;;;;2.18;100.00;94746.97;5058365;28;20647;-72